createdAt,value
2022-10-08T00:00:00.261Z,93.5
2022-10-08T00:05:00.280Z,93.5
2022-10-08T00:10:00.243Z,93.5
2022-10-08T00:15:00.243Z,93.2
2022-10-08T00:20:00.295Z,93.2
2022-10-08T00:25:00.252Z,92.9
2022-10-08T00:30:00.334Z,92.9
2022-10-08T00:35:00.335Z,92.6
2022-10-08T00:40:00.328Z,92.6
2022-10-08T00:45:00.288Z,92.6
2022-10-08T00:50:00.360Z,92.9
2022-10-08T00:55:00.357Z,92.9
2022-10-08T01:00:00.400Z,92.3
2022-10-08T01:05:00.321Z,92.3
2022-10-08T01:10:00.342Z,92.6
2022-10-08T01:15:00.315Z,92.6
2022-10-08T01:20:00.369Z,92.3
2022-10-08T01:25:00.355Z,92.6
2022-10-08T01:30:00.383Z,92.6
2022-10-08T01:35:00.324Z,92.9
2022-10-08T01:40:00.362Z,92.3
2022-10-08T01:45:00.361Z,92.9
2022-10-08T01:50:00.363Z,92.9
2022-10-08T01:55:00.343Z,92.3
2022-10-08T02:00:00.361Z,92.9
2022-10-08T02:05:00.449Z,92.9
2022-10-08T02:10:00.392Z,93.6
2022-10-08T02:15:00.460Z,92.9
2022-10-08T02:20:00.448Z,93
2022-10-08T02:25:00.544Z,93
2022-10-08T02:30:00.468Z,93
2022-10-08T02:35:00.411Z,93
2022-10-08T02:40:00.513Z,93
2022-10-08T02:45:00.420Z,93
2022-10-08T02:50:00.421Z,93
2022-10-08T02:55:00.407Z,93.7
2022-10-08T03:00:00.512Z,93.7
2022-10-08T03:05:00.456Z,93.7
2022-10-08T03:10:00.449Z,95
2022-10-08T03:15:00.456Z,94.7
2022-10-08T03:20:00.447Z,94.1
2022-10-08T03:25:00.455Z,94.4
2022-10-08T03:30:00.456Z,95
2022-10-08T03:35:00.477Z,94.4
2022-10-08T03:40:00.469Z,94.4
2022-10-08T03:45:00.500Z,93.8
2022-10-08T03:50:00.512Z,93.8
2022-10-08T03:55:00.477Z,93.8
2022-10-08T04:00:00.505Z,93.8
2022-10-08T04:05:00.496Z,93.8
2022-10-08T04:10:00.507Z,94.1
2022-10-08T04:15:00.501Z,94.1
2022-10-08T04:20:00.496Z,93.2
2022-10-08T04:25:00.500Z,92.5
2022-10-08T04:30:00.549Z,92.5
2022-10-08T04:35:00.549Z,93.2
2022-10-08T04:40:00.550Z,93.2
2022-10-08T04:45:00.428Z,92.6
2022-10-08T04:50:00.299Z,92.6
2022-10-08T04:55:00.270Z,93.2
2022-10-08T05:00:17.501Z,92.6
2022-10-08T05:05:00.162Z,93.2
2022-10-08T05:10:00.196Z,93.2
2022-10-08T05:15:00.188Z,93.8
2022-10-08T05:20:00.180Z,94.5
2022-10-08T05:25:00.382Z,94.8
2022-10-08T05:30:00.302Z,95.1
2022-10-08T05:35:00.263Z,95.4
2022-10-08T05:40:01.244Z,95.1
2022-10-08T05:45:00.479Z,95.1
2022-10-08T05:50:00.553Z,94.5
2022-10-08T05:55:00.302Z,94.2
2022-10-08T06:00:00.635Z,94.8
2022-10-08T06:05:00.399Z,94.6
2022-10-08T06:10:00.401Z,94.2
2022-10-08T06:15:00.347Z,93.9
2022-10-08T06:20:00.259Z,94
2022-10-08T06:25:00.252Z,94
2022-10-08T06:30:00.268Z,94
2022-10-08T06:35:00.276Z,94
2022-10-08T06:40:00.273Z,94.3
2022-10-08T06:45:02.452Z,94
2022-10-08T06:50:00.355Z,93.4
2022-10-08T06:55:00.277Z,93.4
2022-10-08T07:00:00.384Z,93.5
2022-10-08T07:05:00.282Z,93.2
2022-10-08T07:10:00.391Z,92.9
2022-10-08T07:15:00.320Z,92.2
2022-10-08T07:20:00.406Z,92.9
2022-10-08T07:25:00.301Z,92.6
2022-10-08T07:30:00.318Z,92.3
2022-10-08T07:35:00.363Z,92
2022-10-08T07:40:00.317Z,91.7
2022-10-08T07:45:00.327Z,91.4
2022-10-08T07:50:00.395Z,91.1
2022-10-08T07:55:00.338Z,90.5
2022-10-08T08:00:00.346Z,90.5
2022-10-08T08:05:00.365Z,90.6
2022-10-08T08:10:00.360Z,90
2022-10-08T08:15:00.353Z,89.4
2022-10-08T08:20:00.363Z,89.4
2022-10-08T08:25:00.372Z,89.4
2022-10-08T08:30:00.375Z,89.1
2022-10-08T08:35:00.419Z,88.8
2022-10-08T08:40:00.462Z,88.1
2022-10-08T08:45:00.423Z,87.9
2022-10-08T08:50:00.442Z,87.9
2022-10-08T08:55:00.450Z,88.1
2022-10-08T09:00:00.536Z,88.8
2022-10-08T09:05:00.660Z,88.8
2022-10-08T09:10:00.560Z,88.8
2022-10-08T09:15:00.486Z,88.4
2022-10-08T09:20:00.450Z,88.2
2022-10-08T09:25:00.484Z,87.6
2022-10-08T09:30:00.442Z,87.5
2022-10-08T09:35:00.456Z,87.5
2022-10-08T09:40:00.543Z,87.6
2022-10-08T09:45:00.520Z,87.6
2022-10-08T09:50:00.473Z,87
2022-10-08T09:55:00.558Z,86.7
2022-10-08T10:00:00.662Z,86.6
2022-10-08T10:05:00.483Z,87
2022-10-08T10:10:00.533Z,87
2022-10-08T10:15:00.583Z,86.3
2022-10-08T10:20:00.797Z,87.2
2022-10-08T10:25:00.760Z,86.9
2022-10-08T10:30:00.710Z,87.3
2022-10-08T10:35:00.679Z,87.5
2022-10-08T10:40:00.661Z,87.5
2022-10-08T10:45:00.533Z,88.1
2022-10-08T10:50:00.322Z,88.7
2022-10-08T10:55:00.286Z,88.8
2022-10-08T11:00:00.177Z,88.5
2022-10-08T11:05:01.847Z,88.2
2022-10-08T11:10:00.431Z,88.2
2022-10-08T11:15:00.213Z,87.9
2022-10-08T11:20:00.233Z,88.2
2022-10-08T11:25:00.230Z,88.5
2022-10-08T11:30:00.178Z,87.9
2022-10-08T11:35:00.224Z,87.5
2022-10-08T11:40:00.326Z,87.5
2022-10-08T11:45:00.253Z,87.5
2022-10-08T11:50:00.317Z,88.8
2022-10-08T11:55:00.237Z,88.8
2022-10-08T12:00:03.116Z,88.8
2022-10-08T12:05:00.248Z,88.8
2022-10-08T12:10:00.449Z,89.4
2022-10-08T12:15:00.252Z,88.8
2022-10-08T12:20:00.324Z,88.8
2022-10-08T12:25:00.291Z,88.8
2022-10-08T12:30:00.324Z,88.5
2022-10-08T12:35:00.283Z,88.2
2022-10-08T12:40:00.281Z,87.6
2022-10-08T12:45:00.269Z,87.7
2022-10-08T12:50:00.283Z,86.8
2022-10-08T12:55:00.284Z,85.9
2022-10-08T13:00:00.298Z,85.3
2022-10-08T13:05:00.288Z,84
2022-10-08T13:10:00.304Z,81.5
2022-10-08T13:15:00.308Z,82.4
2022-10-08T13:20:00.343Z,78.9
2022-10-08T13:25:00.315Z,77.7
2022-10-08T13:30:00.331Z,77
2022-10-08T13:35:00.374Z,77
2022-10-08T13:40:00.377Z,75
2022-10-08T13:45:00.330Z,74.4
2022-10-08T13:50:00.377Z,74.7
2022-10-08T13:55:00.341Z,74.7
2022-10-08T14:00:00.403Z,74.3
2022-10-08T14:05:00.357Z,70.8
2022-10-08T14:10:00.365Z,72.4
2022-10-08T14:15:00.357Z,71.8
2022-10-08T14:20:00.409Z,71.1
2022-10-08T14:25:00.378Z,70.2
2022-10-08T14:30:00.383Z,69.9
2022-10-08T14:35:00.422Z,70.5
2022-10-08T14:40:00.411Z,67.9
2022-10-08T14:45:00.419Z,67.9
2022-10-08T14:50:00.417Z,67.6
2022-10-08T14:55:00.487Z,66.3
2022-10-08T15:00:00.420Z,65
2022-10-08T15:05:00.416Z,66
2022-10-08T15:10:00.417Z,63.7
2022-10-08T15:15:00.466Z,66.2
2022-10-08T15:20:00.430Z,67.8
2022-10-08T15:25:00.424Z,67.8
2022-10-08T15:30:00.436Z,67.1
2022-10-08T15:35:00.463Z,67.1
2022-10-08T15:40:00.447Z,67.1
2022-10-08T15:45:00.492Z,69
2022-10-08T15:50:00.486Z,69
2022-10-08T15:55:00.500Z,68.9
2022-10-08T16:00:00.475Z,69.2
2022-10-08T16:05:00.475Z,70.5
2022-10-08T16:10:00.499Z,70.8
2022-10-08T16:15:00.488Z,71.4
2022-10-08T16:20:00.592Z,71.1
2022-10-08T16:25:00.537Z,71.3
2022-10-08T16:30:00.616Z,72
2022-10-08T16:35:00.533Z,72.3
2022-10-08T16:40:00.563Z,72.6
2022-10-08T16:45:00.498Z,72.5
2022-10-08T16:50:00.397Z,73.1
2022-10-08T16:55:01.168Z,73.7
2022-10-08T17:00:00.435Z,74
2022-10-08T17:05:00.167Z,73.7
2022-10-08T17:10:00.185Z,74.3
2022-10-08T17:15:00.243Z,74.9
2022-10-08T17:20:00.174Z,76.4
2022-10-08T17:25:00.229Z,76.1
2022-10-08T17:30:00.188Z,77.3
2022-10-08T17:35:00.202Z,77.6
2022-10-08T17:40:00.267Z,78.8
2022-10-08T17:45:00.346Z,78.5
2022-10-08T17:50:00.316Z,78.8
2022-10-08T17:55:00.402Z,79.4
2022-10-08T18:00:00.354Z,79.1
2022-10-08T18:05:00.325Z,79.1
2022-10-08T18:10:00.257Z,80.3
2022-10-08T18:15:00.298Z,79.7
2022-10-08T18:20:00.262Z,79.7
2022-10-08T18:25:00.272Z,79.1
2022-10-08T18:30:00.250Z,78.8
2022-10-08T18:35:00.264Z,79.1
2022-10-08T18:40:00.283Z,79.1
2022-10-08T18:45:00.268Z,79.1
2022-10-08T18:50:00.270Z,79.1
2022-10-08T18:55:00.279Z,78.8
2022-10-08T19:00:00.336Z,78.8
2022-10-08T19:05:00.303Z,79.1
2022-10-08T19:10:00.323Z,79.7
2022-10-08T19:15:00.336Z,79.4
2022-10-08T19:20:00.304Z,79.7
2022-10-08T19:25:00.322Z,79.7
2022-10-08T19:30:00.323Z,79.7
2022-10-08T19:35:00.315Z,79.7
2022-10-08T19:40:00.350Z,79.7
2022-10-08T19:45:00.337Z,79.9
2022-10-08T19:50:00.347Z,79.9
2022-10-08T19:55:00.328Z,80.2
2022-10-08T20:00:00.344Z,80.2
2022-10-08T20:05:00.336Z,81.1
2022-10-08T20:10:00.362Z,81.1
2022-10-08T20:15:00.355Z,81.1
2022-10-08T20:20:15.357Z,81.4
2022-10-08T20:25:00.400Z,81.4
2022-10-08T20:30:00.466Z,81.4
2022-10-08T20:35:00.399Z,81.4
2022-10-08T20:40:00.426Z,82
2022-10-08T20:45:00.452Z,82.4
2022-10-08T20:50:00.410Z,82.7
2022-10-08T20:55:00.457Z,83.3
2022-10-08T21:00:00.618Z,83.3
2022-10-08T21:05:00.405Z,83.3
2022-10-08T21:10:00.434Z,83.6
2022-10-08T21:15:00.451Z,83.6
2022-10-08T21:20:00.426Z,84
2022-10-08T21:25:00.440Z,84
2022-10-08T21:30:00.599Z,84.3
2022-10-08T21:35:00.454Z,84.3
2022-10-08T21:40:00.480Z,84.6
2022-10-08T21:45:00.535Z,84.6
2022-10-08T21:50:00.477Z,84.6
2022-10-08T21:55:00.478Z,84.9
2022-10-08T22:00:00.542Z,85.2
2022-10-08T22:05:00.461Z,85.2
2022-10-08T22:10:00.470Z,85.2
2022-10-08T22:15:00.520Z,85.5
2022-10-08T22:20:00.477Z,85.8
2022-10-08T22:25:00.720Z,86.1
2022-10-08T22:30:00.600Z,85.8
2022-10-08T22:35:00.802Z,85.8
2022-10-08T22:40:00.604Z,85.9
2022-10-08T22:45:00.547Z,85.9
2022-10-08T22:50:00.349Z,85.9
2022-10-08T22:55:00.220Z,85.9
2022-10-08T23:00:00.245Z,85.9
2022-10-08T23:05:00.172Z,85.6
2022-10-08T23:10:00.173Z,85.8
2022-10-08T23:15:00.181Z,85.8
2022-10-08T23:20:00.187Z,85.8
2022-10-08T23:25:00.185Z,85.8
2022-10-08T23:30:00.195Z,86.4
2022-10-08T23:35:00.226Z,86.7
2022-10-08T23:40:00.208Z,86.8
2022-10-08T23:45:00.229Z,87
2022-10-08T23:50:00.213Z,87.4
2022-10-08T23:55:00.216Z,87.6
